createdAt,value
2022-08-12T00:00:35.330Z,45.64
2022-08-12T00:03:21.230Z,46.05
2022-08-12T00:06:07.685Z,46.72
2022-08-12T00:08:55.594Z,47.18
2022-08-12T00:11:42.469Z,46.81
2022-08-12T00:14:29.326Z,47.21
2022-08-12T00:17:14.822Z,48.63
2022-08-12T00:20:00.271Z,48.82
2022-08-12T00:22:46.651Z,50.50
2022-08-12T00:26:05.634Z,50.51
2022-08-12T00:28:49.676Z,51.65
2022-08-12T00:31:35.493Z,51.94
2022-08-12T00:34:20.645Z,50.69
2022-08-12T00:37:13.319Z,50.80
2022-08-12T00:40:00.654Z,50.59
2022-08-12T00:42:28.132Z,50.19
2022-08-12T00:44:57.241Z,50.18
2022-08-12T00:47:25.637Z,50.58
2022-08-12T00:49:54.499Z,49.79
2022-08-12T00:52:22.118Z,49.71
2022-08-12T00:54:51.854Z,49.56
2022-08-12T00:57:26.909Z,49.77
2022-08-12T01:00:00.276Z,50.49
2022-08-12T01:02:33.689Z,49.63
2022-08-12T01:05:25.705Z,51.08
2022-08-12T01:08:11.333Z,51.15
2022-08-12T01:10:57.985Z,52.04
2022-08-12T01:13:25.978Z,53.05
2022-08-12T01:15:57.932Z,53.07
2022-08-12T01:18:27.257Z,52.56
2022-08-12T01:21:03.966Z,53.05
2022-08-12T01:23:50.172Z,52.39
2022-08-12T01:26:20.920Z,52.66
2022-08-12T01:28:51.037Z,51.99
2022-08-12T01:31:19.408Z,53.76
2022-08-12T01:33:55.547Z,53.25
2022-08-12T01:36:23.024Z,53.14
2022-08-12T01:38:50.712Z,52.32
2022-08-12T01:41:18.312Z,53.11
2022-08-12T01:43:45.429Z,52.68
2022-08-12T01:46:38.433Z,53.81
2022-08-12T01:49:17.582Z,53.30
2022-08-12T01:52:15.106Z,52.84
2022-08-12T01:54:44.662Z,53.08
2022-08-12T01:57:59.517Z,53.53
2022-08-12T02:00:16.213Z,53.10
2022-08-12T02:03:13.851Z,53.27
2022-08-12T02:06:22.487Z,53.69
2022-08-12T02:09:14.829Z,54.11
2022-08-12T02:12:13.512Z,53.64
2022-08-12T02:14:46.142Z,54.78
2022-08-12T02:17:56.050Z,54.33
2022-08-12T02:20:52.442Z,53.86
2022-08-12T02:23:25.461Z,54.67
2022-08-12T02:25:54.962Z,54.08
2022-08-12T02:28:21.717Z,54.32
2022-08-12T02:30:48.833Z,53.20
2022-08-12T02:33:18.101Z,53.35
2022-08-12T02:35:44.928Z,53.67
2022-08-12T02:38:12.613Z,53.48
2022-08-12T02:40:41.205Z,54.22
2022-08-12T02:43:27.500Z,54.39
2022-08-12T02:46:01.561Z,54.53
2022-08-12T02:48:41.750Z,54.60
2022-08-12T02:51:10.241Z,55.04
2022-08-12T02:53:37.873Z,53.96
2022-08-12T02:56:05.971Z,53.86
2022-08-12T02:58:35.509Z,54.48
2022-08-12T03:01:05.050Z,54.06
2022-08-12T03:03:34.292Z,53.50
2022-08-12T03:06:16.683Z,53.73
2022-08-12T03:08:44.875Z,53.81
2022-08-12T03:11:31.515Z,53.86
2022-08-12T03:14:02.209Z,53.90
2022-08-12T03:16:33.230Z,54.42
2022-08-12T03:19:00.545Z,55.82
2022-08-12T03:21:52.973Z,56.16
2022-08-12T03:24:17.245Z,55.57
2022-08-12T03:26:45.228Z,54.95
2022-08-12T03:29:12.720Z,55.12
2022-08-12T03:31:39.404Z,55.18
2022-08-12T03:34:08.793Z,55.84
2022-08-12T03:36:37.092Z,56.02
2022-08-12T03:39:18.720Z,55.97
2022-08-12T03:41:55.433Z,56.27
2022-08-12T03:44:56.486Z,56.83
2022-08-12T03:47:51.718Z,57.61
2022-08-12T03:50:37.482Z,57.44
2022-08-12T03:53:25.293Z,57.82
2022-08-12T03:56:10.871Z,58.60
2022-08-12T03:58:56.453Z,58.58
2022-08-12T04:01:25.532Z,57.81
2022-08-12T04:03:52.337Z,58.94
2022-08-12T04:06:35.171Z,59.41
2022-08-12T04:09:14.419Z,59.71
2022-08-12T04:12:01.390Z,60.07
2022-08-12T04:14:28.282Z,58.90
2022-08-12T04:16:56.335Z,59.36
2022-08-12T04:19:25.060Z,58.73
2022-08-12T04:22:02.619Z,57.93
2022-08-12T04:24:36.861Z,59.14
2022-08-12T04:27:09.289Z,59.18
2022-08-12T04:30:21.225Z,58.84
2022-08-12T04:32:25.351Z,59.87
2022-08-12T04:34:52.103Z,59.40
2022-08-12T04:37:18.708Z,59.52
2022-08-12T04:39:46.157Z,58.83
2022-08-12T04:42:13.133Z,57.62
2022-08-12T04:44:40.133Z,57.11
2022-08-12T04:47:07.495Z,57.23
2022-08-12T04:49:34.918Z,56.89
2022-08-12T04:52:02.789Z,57.05
2022-08-12T04:54:29.986Z,57.03
2022-08-12T04:57:03.244Z,58.30
2022-08-12T04:59:32.691Z,58.03
2022-08-12T05:02:21.599Z,57.75
2022-08-12T05:04:53.313Z,58.96
2022-08-12T05:07:20.543Z,57.70
2022-08-12T05:09:58.855Z,58.56
2022-08-12T05:12:37.163Z,57.94
2022-08-12T05:15:18.988Z,59.11
2022-08-12T05:17:51.970Z,59.74
2022-08-12T05:20:21.027Z,59.05
2022-08-12T05:22:47.848Z,57.81
2022-08-12T05:25:15.842Z,59.42
2022-08-12T05:27:57.854Z,58.52
2022-08-12T05:30:30.905Z,56.56
2022-08-12T05:33:00.131Z,56.40
2022-08-12T05:35:27.340Z,56.28
2022-08-12T05:38:14.055Z,57.24
2022-08-12T05:40:41.925Z,56.74
2022-08-12T05:43:08.644Z,56.12
2022-08-12T05:45:35.307Z,55.79
2022-08-12T05:48:02.710Z,55.37
2022-08-12T05:50:29.936Z,55.76
2022-08-12T05:52:56.549Z,55.62
2022-08-12T05:55:25.939Z,55.56
2022-08-12T05:57:57.347Z,56.76
2022-08-12T06:00:29.341Z,55.44
2022-08-12T06:03:01.123Z,55.52
2022-08-12T06:05:51.991Z,57.48
2022-08-12T06:08:22.403Z,57.40
2022-08-12T06:10:51.776Z,57.52
2022-08-12T06:13:28.388Z,56.80
2022-08-12T06:16:07.324Z,56.03
2022-08-12T06:18:34.502Z,56.84
2022-08-12T06:21:01.907Z,56.33
2022-08-12T06:23:29.748Z,56.49
2022-08-12T06:25:56.664Z,51.92
2022-08-12T06:28:23.681Z,51.42
2022-08-12T06:31:14.824Z,52.49
2022-08-12T06:33:59.448Z,50.25
2022-08-12T06:36:29.598Z,52.72
2022-08-12T06:38:59.274Z,50.13
2022-08-12T06:42:30.637Z,50.05
2022-08-12T06:44:32.509Z,51.59
2022-08-12T06:46:59.209Z,53.00
2022-08-12T06:49:25.979Z,52.00
2022-08-12T06:51:56.772Z,50.71
2022-08-12T06:54:27.128Z,49.23
2022-08-12T06:57:59.670Z,49.77
2022-08-12T06:59:50.382Z,51.34
2022-08-12T07:02:20.560Z,49.37
2022-08-12T07:04:47.510Z,52.47
2022-08-12T07:07:14.215Z,51.14
2022-08-12T07:10:01.489Z,48.82
2022-08-12T07:12:29.176Z,47.33
2022-08-12T07:14:59.487Z,49.53
2022-08-12T07:17:31.597Z,49.14
2022-08-12T07:20:03.982Z,48.78
2022-08-12T07:22:31.244Z,44.89
2022-08-12T07:25:16.475Z,43.83
2022-08-12T07:27:43.475Z,43.31
2022-08-12T07:30:10.913Z,45.43
2022-08-12T07:32:37.609Z,45.77
2022-08-12T07:35:04.783Z,46.82
2022-08-12T07:37:31.674Z,45.32
2022-08-12T07:39:59.657Z,45.69
2022-08-12T07:42:28.279Z,45.65
2022-08-12T07:44:55.874Z,45.27
2022-08-12T07:47:23.063Z,44.71
2022-08-12T07:50:05.263Z,45.20
2022-08-12T07:52:38.448Z,44.34
2022-08-12T07:55:05.762Z,43.61
2022-08-12T07:57:35.145Z,42.61
2022-08-12T08:02:35.838Z,41.46
2022-08-12T08:05:04.047Z,42.31
2022-08-12T08:07:31.120Z,41.74
2022-08-12T08:10:00.202Z,41.75
2022-08-12T08:12:47.670Z,41.33
2022-08-12T08:15:15.795Z,41.32
2022-08-12T08:18:02.922Z,41.21
2022-08-12T08:20:35.833Z,39.90
2022-08-12T08:23:08.391Z,37.21
2022-08-12T08:25:38.848Z,40.28
2022-08-12T08:28:16.138Z,38.21
2022-08-12T08:30:46.491Z,36.00
2022-08-12T08:33:20.146Z,35.59
2022-08-12T08:35:50.140Z,36.98
2022-08-12T08:38:33.343Z,34.56
2022-08-12T08:42:17.444Z,35.76
2022-08-12T08:44:12.113Z,32.34
2022-08-12T08:46:41.097Z,34.78
2022-08-12T08:49:08.598Z,34.56
2022-08-12T08:51:40.688Z,33.51
2022-08-12T08:54:10.883Z,33.94
2022-08-12T08:56:50.191Z,31.53
2022-08-12T08:59:22.435Z,32.24
2022-08-12T09:01:52.432Z,30.47
2022-08-12T09:05:12.171Z,31.75
2022-08-12T09:07:18.204Z,33.12
2022-08-12T09:10:04.148Z,32.56
2022-08-12T09:15:42.580Z,32.58
2022-08-12T09:18:26.669Z,31.38
2022-08-12T09:21:01.988Z,30.50
2022-08-12T09:24:00.312Z,29.78
2022-08-12T09:26:21.829Z,29.00
2022-08-12T09:29:00.756Z,29.65
2022-08-12T09:32:07.498Z,29.64
2022-08-12T09:34:27.638Z,28.58
2022-08-12T09:37:18.563Z,29.79
2022-08-12T09:40:02.587Z,29.39
2022-08-12T09:43:10.932Z,30.16
2022-08-12T09:46:11.783Z,30.30
2022-08-12T09:48:24.865Z,29.97
2022-08-12T09:50:54.994Z,29.08
2022-08-12T09:53:29.251Z,29.22
2022-08-12T09:56:56.995Z,31.88
2022-08-12T09:59:00.184Z,30.58
2022-08-12T10:01:35.368Z,28.89
2022-08-12T10:04:19.056Z,28.10
2022-08-12T10:06:46.636Z,29.99
2022-08-12T10:09:28.280Z,28.57
2022-08-12T10:12:31.487Z,28.72
2022-08-12T10:15:01.491Z,28.78
2022-08-12T10:17:28.297Z,28.79
2022-08-12T10:19:54.866Z,30.54
2022-08-12T10:22:40.220Z,27.60
2022-08-12T10:26:34.327Z,30.00
2022-08-12T10:28:33.423Z,31.59
2022-08-12T10:31:01.387Z,29.82
2022-08-12T10:33:33.522Z,27.44
2022-08-12T10:36:01.952Z,27.36
2022-08-12T10:38:39.088Z,28.80
2022-08-12T10:41:57.905Z,29.72
2022-08-12T10:44:17.272Z,28.16
2022-08-12T10:46:49.390Z,28.28
2022-08-12T10:50:03.731Z,29.90
2022-08-12T10:52:33.827Z,27.97
2022-08-12T10:54:55.974Z,28.26
2022-08-12T10:58:12.731Z,30.34
2022-08-12T11:00:31.020Z,29.28
2022-08-12T11:04:25.695Z,27.38
2022-08-12T11:07:09.297Z,26.93
2022-08-12T11:08:43.246Z,27.56
2022-08-12T11:11:17.584Z,28.07
2022-08-12T11:13:48.722Z,29.61
2022-08-12T11:16:22.643Z,29.05
2022-08-12T11:18:55.298Z,30.13
2022-08-12T11:21:51.109Z,30.31
2022-08-12T11:24:30.331Z,29.96
2022-08-12T11:26:59.171Z,30.10
2022-08-12T11:29:27.499Z,29.99
2022-08-12T11:32:14.080Z,29.43
2022-08-12T11:34:52.924Z,29.14
2022-08-12T11:37:25.929Z,29.13
2022-08-12T11:42:39.644Z,29.69
2022-08-12T11:45:12.998Z,28.70
2022-08-12T11:47:43.747Z,30.00
2022-08-12T11:50:11.833Z,27.16
2022-08-12T11:52:56.432Z,28.75
2022-08-12T11:55:25.293Z,27.34
2022-08-12T11:58:19.841Z,28.16
2022-08-12T12:03:45.661Z,29.79
2022-08-12T12:06:17.821Z,28.17
2022-08-12T12:08:52.828Z,28.54
2022-08-12T12:11:21.683Z,28.05
2022-08-12T12:14:08.345Z,30.06
2022-08-12T12:16:37.992Z,29.94
2022-08-12T12:19:07.160Z,26.95
2022-08-12T12:21:47.393Z,29.21
2022-08-12T12:24:21.511Z,29.17
2022-08-12T12:27:00.507Z,28.67
2022-08-12T12:30:18.298Z,27.60
2022-08-12T12:32:18.358Z,26.06
2022-08-12T12:35:13.520Z,26.66
2022-08-12T12:38:05.102Z,27.79
2022-08-12T12:40:18.795Z,28.29
2022-08-12T12:43:00.367Z,27.26
2022-08-12T12:45:32.444Z,26.46
2022-08-12T12:48:03.027Z,27.15
2022-08-12T12:51:09.483Z,27.82
2022-08-12T12:54:07.644Z,28.67
2022-08-12T12:56:34.050Z,26.86
2022-08-12T12:59:03.624Z,28.34
2022-08-12T13:01:32.052Z,27.28
2022-08-12T13:04:02.653Z,28.07
2022-08-12T13:06:31.612Z,27.12
2022-08-12T13:09:02.577Z,28.05
2022-08-12T13:11:39.032Z,25.88
2022-08-12T13:14:12.819Z,27.34
2022-08-12T13:16:55.178Z,25.54
2022-08-12T13:19:25.475Z,25.51
2022-08-12T13:22:23.607Z,25.97
2022-08-12T13:24:56.755Z,26.35
2022-08-12T13:27:35.049Z,25.13
2022-08-12T13:30:07.008Z,23.89
2022-08-12T13:32:39.206Z,24.15
2022-08-12T13:35:19.713Z,25.03
2022-08-12T13:37:55.695Z,25.76
2022-08-12T13:40:25.031Z,26.92
2022-08-12T13:42:58.590Z,26.32
2022-08-12T13:45:26.507Z,25.16
2022-08-12T13:47:58.468Z,25.71
2022-08-12T13:50:36.480Z,26.64
2022-08-12T13:53:06.113Z,25.75
2022-08-12T13:56:01.515Z,25.99
2022-08-12T13:58:30.156Z,25.64
2022-08-12T14:00:58.083Z,26.22
2022-08-12T14:03:28.493Z,27.63
2022-08-12T14:06:15.452Z,28.01
2022-08-12T14:08:43.117Z,27.25
2022-08-12T14:11:12.433Z,27.86
2022-08-12T14:14:06.127Z,30.30
2022-08-12T14:16:37.718Z,26.44
2022-08-12T14:19:22.014Z,26.37
2022-08-12T14:22:01.427Z,27.38
2022-08-12T14:24:35.353Z,26.58
2022-08-12T14:27:03.741Z,25.84
2022-08-12T14:29:55.673Z,25.78
2022-08-12T14:32:23.736Z,24.88
2022-08-12T14:34:51.531Z,24.65
2022-08-12T14:37:57.280Z,25.04
2022-08-12T14:40:06.926Z,26.50
2022-08-12T14:42:33.484Z,25.30
2022-08-12T14:45:01.789Z,26.39
2022-08-12T14:47:34.889Z,25.33
2022-08-12T14:50:37.679Z,24.99
2022-08-12T14:58:25.457Z,24.77
2022-08-12T15:01:11.437Z,26.37
2022-08-12T15:03:52.403Z,26.00
2022-08-12T15:06:43.572Z,26.44
2022-08-12T15:09:11.845Z,27.15
2022-08-12T15:11:54.344Z,26.45
2022-08-12T15:14:26.746Z,27.69
2022-08-12T15:16:56.839Z,26.02
2022-08-12T15:20:11.214Z,27.72
2022-08-12T15:22:38.456Z,26.81
2022-08-12T15:25:03.508Z,27.61
2022-08-12T15:28:03.877Z,27.69
2022-08-12T15:30:22.809Z,27.17
2022-08-12T15:32:50.736Z,26.57
2022-08-12T15:35:17.583Z,24.66
2022-08-12T15:38:09.028Z,24.84
2022-08-12T15:40:33.285Z,25.93
2022-08-12T15:43:08.263Z,24.36
2022-08-12T15:45:42.573Z,26.46
2022-08-12T15:48:16.805Z,26.08
2022-08-12T15:50:47.194Z,26.13
2022-08-12T15:53:40.017Z,25.88
2022-08-12T15:56:12.696Z,28.30
2022-08-12T15:58:41.384Z,27.66
2022-08-12T16:01:15.104Z,28.58
2022-08-12T16:03:46.260Z,27.96
2022-08-12T16:06:50.863Z,30.03
2022-08-12T16:09:17.367Z,27.97
2022-08-12T16:11:48.618Z,28.43
2022-08-12T16:14:16.111Z,26.97
2022-08-12T16:16:42.959Z,26.10
2022-08-12T16:20:01.723Z,27.99
2022-08-12T16:21:58.971Z,27.86
2022-08-12T16:24:25.886Z,27.84
2022-08-12T16:26:54.366Z,27.23
2022-08-12T16:29:49.465Z,26.20
2022-08-12T16:32:19.303Z,25.88
2022-08-12T16:34:55.899Z,25.69
2022-08-12T16:38:15.527Z,23.27
2022-08-12T16:40:12.051Z,23.27
2022-08-12T16:42:42.103Z,24.06
2022-08-12T16:45:20.900Z,26.55
2022-08-12T16:47:57.719Z,27.00
2022-08-12T16:50:31.205Z,26.52
2022-08-12T16:52:59.744Z,28.08
2022-08-12T16:55:35.065Z,27.40
2022-08-12T16:58:27.867Z,27.46
2022-08-12T17:00:58.271Z,29.03
2022-08-12T17:03:29.109Z,29.56
2022-08-12T17:05:57.135Z,27.90
2022-08-12T17:08:29.284Z,29.39
2022-08-12T17:10:56.179Z,27.50
2022-08-12T17:13:26.117Z,27.94
2022-08-12T17:16:05.186Z,27.32
2022-08-12T17:18:42.859Z,29.59
2022-08-12T17:21:17.336Z,28.39
2022-08-12T17:23:53.715Z,27.39
2022-08-12T17:26:22.436Z,28.80
2022-08-12T17:28:56.087Z,31.06
2022-08-12T17:31:59.661Z,28.81
2022-08-12T17:34:29.141Z,29.63
2022-08-12T17:36:58.705Z,30.81
2022-08-12T17:40:15.598Z,32.12
2022-08-12T17:42:34.655Z,30.76
2022-08-12T17:45:17.225Z,29.66
2022-08-12T17:48:01.507Z,28.98
2022-08-12T17:50:34.207Z,31.91
2022-08-12T17:53:03.258Z,29.72
2022-08-12T17:55:44.641Z,29.29
2022-08-12T17:58:15.235Z,32.44
2022-08-12T18:00:44.201Z,29.18
2022-08-12T18:04:04.396Z,30.56
2022-08-12T18:06:08.097Z,31.00
2022-08-12T18:08:35.706Z,31.04
2022-08-12T18:11:38.311Z,30.29
2022-08-12T18:14:08.183Z,31.02
2022-08-12T18:16:38.599Z,30.44
2022-08-12T18:19:07.016Z,30.46
2022-08-12T18:22:01.121Z,31.14
2022-08-12T18:24:25.074Z,30.76
2022-08-12T18:26:56.562Z,31.75
2022-08-12T18:29:23.937Z,31.98
2022-08-12T18:31:59.183Z,30.87
2022-08-12T18:34:29.185Z,32.49
2022-08-12T18:36:59.547Z,31.72
2022-08-12T18:39:57.538Z,31.92
2022-08-12T18:42:27.242Z,31.69
2022-08-12T18:44:58.740Z,32.92
2022-08-12T18:47:49.826Z,33.69
2022-08-12T18:50:18.377Z,36.00
2022-08-12T18:52:48.434Z,34.82
2022-08-12T18:55:16.127Z,35.24
2022-08-12T18:58:06.222Z,34.87
2022-08-12T19:00:32.052Z,34.63
2022-08-12T19:02:58.678Z,35.57
2022-08-12T19:05:53.254Z,35.43
2022-08-12T19:08:14.501Z,35.71
2022-08-12T19:10:42.986Z,35.46
2022-08-12T19:13:36.177Z,36.09
2022-08-12T19:16:11.235Z,34.63
2022-08-12T19:18:40.922Z,34.88
2022-08-12T19:21:16.043Z,34.32
2022-08-12T19:23:44.006Z,34.54
2022-08-12T19:26:12.498Z,37.45
2022-08-12T19:28:39.765Z,36.60
2022-08-12T19:31:55.934Z,37.72
2022-08-12T19:37:27.409Z,35.65
2022-08-12T19:40:09.019Z,37.33
2022-08-12T19:42:53.608Z,36.11
2022-08-12T19:45:24.464Z,37.60
2022-08-12T19:48:17.057Z,39.54
2022-08-12T19:50:50.634Z,37.70
2022-08-12T19:53:22.833Z,37.35
2022-08-12T19:55:52.676Z,39.98
2022-08-12T19:58:20.351Z,38.42
2022-08-12T20:00:52.601Z,38.26
2022-08-12T20:03:39.562Z,38.07
2022-08-12T20:06:21.801Z,38.58
2022-08-12T20:08:55.928Z,38.31
2022-08-12T20:12:15.175Z,39.05
2022-08-12T20:14:18.609Z,37.73
2022-08-12T20:16:51.110Z,39.59
2022-08-12T20:19:21.178Z,39.17
2022-08-12T20:21:50.513Z,39.00
2022-08-12T20:24:17.160Z,39.26
2022-08-12T20:26:46.393Z,38.09
2022-08-12T20:29:13.499Z,40.96
2022-08-12T20:31:40.814Z,40.68
2022-08-12T20:34:08.688Z,41.10
2022-08-12T20:36:44.623Z,43.10
2022-08-12T20:39:35.979Z,41.74
2022-08-12T20:42:07.184Z,41.86
2022-08-12T20:44:39.826Z,41.80
2022-08-12T20:47:20.119Z,41.71
2022-08-12T20:49:56.048Z,41.56
2022-08-12T20:52:29.835Z,42.25
2022-08-12T20:55:15.697Z,41.86
2022-08-12T20:58:02.530Z,42.52
2022-08-12T21:00:31.722Z,41.56
2022-08-12T21:03:19.589Z,41.94
2022-08-12T21:06:12.510Z,42.72
2022-08-12T21:08:41.659Z,42.81
2022-08-12T21:11:10.227Z,43.29
2022-08-12T21:13:41.849Z,44.14
2022-08-12T21:16:10.086Z,45.95
2022-08-12T21:18:37.665Z,43.52
2022-08-12T21:21:05.545Z,44.90
2022-08-12T21:23:37.346Z,45.10
2022-08-12T21:26:11.256Z,44.19
2022-08-12T21:28:58.877Z,45.11
2022-08-12T21:32:40.335Z,46.84
2022-08-12T21:34:19.461Z,46.79
2022-08-12T21:36:52.820Z,44.31
2022-08-12T21:39:27.904Z,46.42
2022-08-12T21:42:06.681Z,46.41
2022-08-12T21:45:45.777Z,45.99
2022-08-12T21:47:23.501Z,44.71
2022-08-12T21:50:03.325Z,46.26
2022-08-12T21:52:36.481Z,47.15
2022-08-12T21:55:19.496Z,46.04
2022-08-12T21:57:53.572Z,46.45
2022-08-12T22:00:31.782Z,46.27
2022-08-12T22:04:02.080Z,45.84
2022-08-12T22:06:31.481Z,47.17
2022-08-12T22:09:17.168Z,46.80
2022-08-12T22:11:49.209Z,46.39
2022-08-12T22:14:24.287Z,46.75
2022-08-12T22:16:54.764Z,46.69
2022-08-12T22:19:23.248Z,47.16
2022-08-12T22:21:53.989Z,48.00
2022-08-12T22:24:27.112Z,48.28
2022-08-12T22:27:08.269Z,50.93
2022-08-12T22:30:07.577Z,50.12
2022-08-12T22:32:41.946Z,49.60
2022-08-12T22:35:55.978Z,51.44
2022-08-12T22:38:19.917Z,52.06
2022-08-12T22:40:48.001Z,51.53
2022-08-12T22:43:34.076Z,52.03
2022-08-12T22:46:19.462Z,52.21
2022-08-12T22:48:50.349Z,52.13
2022-08-12T22:51:22.179Z,53.89
2022-08-12T22:53:54.759Z,52.31
2022-08-12T22:56:31.094Z,52.11
2022-08-12T22:59:02.758Z,51.94
2022-08-12T23:02:01.003Z,53.52
2022-08-12T23:04:27.588Z,52.98
2022-08-12T23:06:56.711Z,53.82
2022-08-12T23:09:34.637Z,53.69
2022-08-12T23:12:35.202Z,53.25
2022-08-12T23:15:08.289Z,53.80
2022-08-12T23:17:40.087Z,53.59
2022-08-12T23:20:11.044Z,52.95
2022-08-12T23:22:38.519Z,53.30
2022-08-12T23:25:07.627Z,53.82
2022-08-12T23:28:04.456Z,54.45
2022-08-12T23:30:35.157Z,54.53
2022-08-12T23:33:20.007Z,54.13
2022-08-12T23:36:02.463Z,54.54
2022-08-12T23:38:32.424Z,53.95
2022-08-12T23:41:04.288Z,53.33
2022-08-12T23:43:39.416Z,54.21
2022-08-12T23:46:08.685Z,54.14
2022-08-12T23:48:35.769Z,54.41
2022-08-12T23:51:21.662Z,53.26
2022-08-12T23:53:48.571Z,54.32
2022-08-12T23:56:16.355Z,54.93
2022-08-12T23:58:49.681Z,55.16
